Time;durP1;ratioP1;P1;durP2;ratioP2;P2;SDS_P1;SDS_P2;PMS_P1;PMS_P2;Temp;Humidity;BMP_temperature;BMP_pressure;BME280_temperature;BME280_humidity;BME280_pressure;Samples;Min_cycle;Max_cycle;Signal;HPM_P1;HPM_P2
2022/08/25 00:01:28;;;;;;;21.08;10.73;;;;;;;19.81;92.56;101471.41;5070769;28;20044;-76
2022/08/25 00:03:53;;;;;;;21.58;10.63;;;;;;;19.78;92.83;101466.22;5070380;28;20081;-76
2022/08/25 00:06:19;;;;;;;20.95;10.57;;;;;;;19.76;92.87;101463.66;5070883;28;20032;-76
2022/08/25 00:08:45;;;;;;;21.00;9.95;;;;;;;19.72;92.80;101456.81;5069040;28;20028;-76
2022/08/25 00:11:16;;;;;;;20.67;10.63;;;;;;;19.70;93.10;101456.13;5070828;28;20435;-76
2022/08/25 00:13:45;;;;;;;21.35;11.43;;;;;;;19.70;93.20;101461.56;5063178;28;20116;-76
2022/08/25 00:16:12;;;;;;;21.75;9.77;;;;;;;19.67;93.12;101470.06;5071698;28;20142;-76
2022/08/25 00:18:40;;;;;;;20.83;10.90;;;;;;;19.63;93.29;101458.59;5071300;28;20065;-76
2022/08/25 00:21:06;;;;;;;21.35;10.82;;;;;;;19.61;93.36;101460.66;5067355;28;20024;-76
2022/08/25 00:23:31;;;;;;;19.25;9.85;;;;;;;19.58;93.28;101451.91;5066253;28;20071;-76
2022/08/25 00:25:57;;;;;;;19.50;9.80;;;;;;;19.53;93.08;101458.72;5068252;28;20025;-76
2022/08/25 00:28:22;;;;;;;21.20;9.65;;;;;;;19.50;93.60;101449.97;5070715;28;20032;-76
2022/08/25 00:30:48;;;;;;;20.48;10.65;;;;;;;19.48;93.73;101455.59;5070037;28;20338;-76
2022/08/25 00:33:14;;;;;;;25.92;11.80;;;;;;;19.46;93.90;101457.63;5070260;28;20048;-76
2022/08/25 00:35:41;;;;;;;20.65;10.15;;;;;;;19.42;94.04;101461.66;5068695;28;20028;-76
2022/08/25 00:38:08;;;;;;;21.20;11.32;;;;;;;19.39;93.72;101467.44;5068449;28;20013;-76
2022/08/25 00:40:34;;;;;;;20.15;10.32;;;;;;;19.36;94.23;101456.84;5070332;28;20578;-76
2022/08/25 00:42:59;;;;;;;20.40;10.27;;;;;;;19.34;94.26;101458.84;5063011;28;20103;-76
2022/08/25 00:45:25;;;;;;;20.23;10.82;;;;;;;19.35;94.52;101461.41;5070398;28;20528;-76
2022/08/25 00:47:51;;;;;;;21.30;11.32;;;;;;;19.31;94.49;101464.63;5070279;28;20081;-76
2022/08/25 00:50:16;;;;;;;21.10;11.13;;;;;;;19.31;94.51;101459.16;5069433;28;20024;-76
2022/08/25 00:52:55;;;;;;;23.83;12.68;;;;;;;19.28;94.05;101454.88;5070083;28;20043;-76
2022/08/25 00:55:25;;;;;;;23.42;11.57;;;;;;;19.25;94.56;101454.34;5068925;28;20039;-76
2022/08/25 00:57:54;;;;;;;20.38;11.50;;;;;;;19.21;94.90;101457.38;5065784;28;20044;-76
2022/08/25 01:00:35;;;;;;;21.15;10.95;;;;;;;19.22;95.00;101458.22;5066233;28;20028;-75
2022/08/25 01:03:01;;;;;;;20.80;11.60;;;;;;;19.20;95.22;101452.94;5073404;28;20591;-75
2022/08/25 01:05:27;;;;;;;19.92;10.73;;;;;;;19.18;95.13;101456.81;5071459;28;20472;-75
2022/08/25 01:07:55;;;;;;;22.45;12.05;;;;;;;19.17;95.07;101463.31;5072342;28;20127;-75
2022/08/25 01:10:22;;;;;;;20.13;10.90;;;;;;;19.14;95.13;101450.84;5076378;28;20059;-75
2022/08/25 01:12:49;;;;;;;21.80;13.05;;;;;;;19.13;95.36;101451.84;5074953;28;20037;-75
2022/08/25 01:15:15;;;;;;;20.75;12.13;;;;;;;19.10;94.98;101451.28;5073378;28;20115;-75
2022/08/25 01:17:56;;;;;;;20.58;10.77;;;;;;;19.09;94.48;101444.13;5074954;28;20524;-75
2022/08/25 01:20:24;;;;;;;20.38;11.95;;;;;;;19.04;95.05;101444.59;5074173;28;20020;-75
2022/08/25 01:22:51;;;;;;;20.42;11.48;;;;;;;19.03;94.81;101446.47;5076336;28;20419;-75
2022/08/25 01:25:30;;;;;;;22.08;12.82;;;;;;;19.03;94.85;101445.59;5075478;28;20480;-75
2022/08/25 01:27:55;;;;;;;22.20;12.90;;;;;;;19.02;94.57;101439.31;5075276;28;20503;-74
2022/08/25 01:30:21;;;;;;;23.05;13.80;;;;;;;19.01;94.92;101444.91;5075692;28;20040;-74
2022/08/25 01:32:46;;;;;;;21.30;12.32;;;;;;;19.01;94.76;101450.34;5071116;28;20485;-74
2022/08/25 01:35:13;;;;;;;22.08;13.35;;;;;;;19.00;94.47;101444.03;5073544;28;20370;-74
2022/08/25 01:37:38;;;;;;;23.85;14.25;;;;;;;18.98;94.57;101451.50;5073199;28;20048;-74
2022/08/25 01:40:05;;;;;;;21.80;13.70;;;;;;;18.97;94.77;101457.09;5076253;28;20020;-74
2022/08/25 01:42:57;;;;;;;23.17;13.73;;;;;;;18.96;94.15;101450.81;5073421;28;20032;-74
2022/08/25 01:45:23;;;;;;;22.45;13.02;;;;;;;18.93;94.03;101451.13;5074682;28;20024;-74
2022/08/25 01:47:48;;;;;;;23.23;13.90;;;;;;;18.93;94.10;101444.81;5074976;28;20040;-74
2022/08/25 01:50:13;;;;;;;23.88;13.57;;;;;;;18.89;93.99;101448.84;5076175;28;20028;-74
2022/08/25 01:52:45;;;;;;;24.65;13.52;;;;;;;18.88;93.87;101444.41;5070933;28;20492;-74
2022/08/25 01:55:11;;;;;;;24.00;13.23;;;;;;;18.84;94.03;101447.41;5066279;28;20997;-74
2022/08/25 01:57:36;;;;;;;23.52;14.23;;;;;;;18.82;93.61;101443.13;5074348;28;20025;-74
2022/08/25 02:00:05;;;;;;;24.70;13.73;;;;;;;18.80;93.87;101440.56;5074796;28;20028;-74
2022/08/25 02:02:30;;;;;;;21.70;12.90;;;;;;;18.79;93.73;101452.44;5096498;28;20048;-74
2022/08/25 02:04:56;;;;;;;23.75;12.88;;;;;;;18.76;93.74;101450.03;5076859;28;20067;-74
2022/08/25 02:07:21;;;;;;;23.00;13.38;;;;;;;18.74;93.52;101445.72;5075299;28;20536;-74
2022/08/25 02:09:46;;;;;;;23.73;14.38;;;;;;;18.71;93.55;101449.63;5074174;28;20024;-75
2022/08/25 02:12:11;;;;;;;22.25;13.02;;;;;;;18.69;93.31;101444.31;5074809;28;20103;-75
2022/08/25 02:14:37;;;;;;;22.05;12.65;;;;;;;18.69;93.23;101440.75;5074658;28;20545;-75
2022/08/25 02:17:04;;;;;;;22.60;13.30;;;;;;;18.66;93.44;101450.06;5075503;28;20100;-74
2022/08/25 02:19:30;;;;;;;22.92;13.52;;;;;;;18.64;93.37;101441.22;5074506;28;20116;-74
2022/08/25 02:21:55;;;;;;;22.23;14.13;;;;;;;18.62;93.33;101437.75;5074408;28;20060;-74
2022/08/25 02:24:21;;;;;;;24.60;13.65;;;;;;;18.60;93.09;101438.94;5074059;28;20496;-74
2022/08/25 02:26:46;;;;;;;22.60;13.32;;;;;;;18.59;93.18;101437.22;5072330;28;20020;-74
2022/08/25 02:29:12;;;;;;;24.20;15.10;;;;;;;18.57;93.13;101437.38;5073330;28;20531;-74
2022/08/25 02:31:38;;;;;;;21.92;13.07;;;;;;;18.54;93.05;101440.41;5075909;28;20036;-74
2022/08/25 02:34:04;;;;;;;24.85;14.23;;;;;;;18.54;92.69;101434.06;5075311;28;20059;-74
2022/08/25 02:36:31;;;;;;;22.80;12.70;;;;;;;18.51;92.93;101435.25;5076317;28;20530;-74
2022/08/25 02:38:57;;;;;;;21.17;12.50;;;;;;;18.49;92.77;101432.69;5076409;28;20025;-74
2022/08/25 02:41:24;;;;;;;23.40;12.98;;;;;;;18.45;92.72;101434.00;5073942;28;20026;-74
2022/08/25 02:43:50;;;;;;;23.48;13.35;;;;;;;18.42;92.48;101434.28;5073385;28;20024;-74
2022/08/25 02:46:18;;;;;;;23.80;13.80;;;;;;;18.39;92.58;101434.59;5074551;28;20040;-74
2022/08/25 02:48:44;;;;;;;20.63;12.68;;;;;;;18.38;92.65;101429.31;5074639;28;20028;-74
2022/08/25 02:51:11;;;;;;;22.40;13.30;;;;;;;18.36;92.80;101431.31;5074270;28;20387;-74
2022/08/25 02:53:39;;;;;;;23.60;13.00;;;;;;;18.34;92.58;101428.72;5076477;28;20040;-74
2022/08/25 02:56:07;;;;;;;22.70;12.85;;;;;;;18.32;92.61;101431.59;5074255;28;20354;-74
2022/08/25 02:58:32;;;;;;;22.05;12.63;;;;;;;18.29;92.65;101421.03;5072412;28;20028;-74
2022/08/25 03:00:58;;;;;;;22.85;12.90;;;;;;;18.25;92.50;101425.03;5071686;28;20411;-74
2022/08/25 03:03:23;;;;;;;21.95;12.25;;;;;;;18.25;92.48;101429.63;5073224;28;20123;-74
2022/08/25 03:05:48;;;;;;;21.98;12.82;;;;;;;18.23;92.53;101427.06;5073564;28;20024;-74
2022/08/25 03:08:14;;;;;;;21.63;12.50;;;;;;;18.21;92.39;101417.31;5074444;28;20037;-74
2022/08/25 03:10:40;;;;;;;21.85;13.57;;;;;;;18.19;92.14;101422.91;5072980;28;20048;-75
2022/08/25 03:13:05;;;;;;;21.52;12.98;;;;;;;18.15;91.93;101418.78;5074048;28;20028;-75
2022/08/25 03:15:31;;;;;;;22.23;12.13;;;;;;;18.12;91.85;101409.03;5071417;28;20465;-75
2022/08/25 03:17:56;;;;;;;22.55;12.23;;;;;;;18.10;91.76;101416.50;5073958;28;20020;-75
2022/08/25 03:20:24;;;;;;;22.98;13.07;;;;;;;18.07;91.51;101416.81;5073198;28;20040;-75
2022/08/25 03:22:49;;;;;;;22.60;12.07;;;;;;;18.05;91.83;101404.34;5072321;28;20077;-75
2022/08/25 03:28:00;;;;;;;20.77;11.85;;;;;;;18.02;91.79;101408.22;5074206;28;20043;-75
2022/08/25 03:30:26;;;;;;;22.48;12.00;;;;;;;18.00;91.63;101404.78;5071213;28;20756;-75
2022/08/25 03:32:51;;;;;;;21.25;12.00;;;;;;;18.01;91.48;101401.09;5073341;28;20024;-75
2022/08/25 03:35:17;;;;;;;22.58;10.98;;;;;;;17.99;90.68;101408.50;5073527;28;20036;-75
2022/08/25 03:37:42;;;;;;;22.17;12.13;;;;;;;17.99;90.69;101403.06;5071204;28;20420;-75
2022/08/25 03:40:11;;;;;;;22.73;11.63;;;;;;;17.94;91.01;101399.97;5073474;28;20121;-75
2022/08/25 03:42:41;;;;;;;22.20;13.02;;;;;;;17.95;91.11;101401.66;5073698;28;20164;-75
2022/08/25 03:45:07;;;;;;;22.85;12.43;;;;;;;17.92;91.00;101396.50;5065930;28;20021;-75
2022/08/25 03:47:33;;;;;;;21.17;11.35;;;;;;;17.88;90.56;101398.66;5064090;28;20043;-75
2022/08/25 03:49:58;;;;;;;24.63;11.80;;;;;;;17.88;90.46;101390.50;5072404;28;20046;-75
2022/08/25 03:52:24;;;;;;;21.48;11.82;;;;;;;17.85;89.96;101390.78;5066962;28;20039;-75
2022/08/25 03:54:49;;;;;;;21.20;11.55;;;;;;;17.84;90.03;101390.94;5070092;28;20480;-75
2022/08/25 03:57:14;;;;;;;23.77;12.32;;;;;;;17.81;89.34;101389.34;5068960;28;20077;-75
2022/08/25 03:59:40;;;;;;;24.20;11.98;;;;;;;17.80;89.50;101383.06;5070453;28;20111;-75
2022/08/25 04:02:07;;;;;;;22.10;12.65;;;;;;;17.79;89.79;101384.06;5069730;28;20024;-75
2022/08/25 04:04:33;;;;;;;20.65;11.70;;;;;;;17.81;89.62;101381.19;5071402;28;20024;-75
2022/08/25 04:06:59;;;;;;;21.50;11.68;;;;;;;17.77;89.58;101374.34;5071097;28;20033;-75
2022/08/25 04:09:24;;;;;;;21.13;11.52;;;;;;;17.76;89.05;101370.78;5073578;28;20028;-75
2022/08/25 04:11:50;;;;;;;25.05;11.65;;;;;;;17.76;88.90;101372.59;5067841;28;20034;-75
2022/08/25 04:14:16;;;;;;;23.05;11.07;;;;;;;17.73;88.89;101373.78;5069583;28;20036;-75
2022/08/25 04:16:43;;;;;;;22.00;12.32;;;;;;;17.74;89.30;101375.47;5073027;28;20029;-75
2022/08/25 04:19:09;;;;;;;21.25;11.55;;;;;;;17.74;88.96;101377.34;5069216;28;20020;-75
2022/08/25 04:21:36;;;;;;;21.48;12.13;;;;;;;17.75;88.66;101384.50;5064637;28;20431;-75
2022/08/25 04:24:02;;;;;;;24.25;12.20;;;;;;;17.76;88.76;101376.22;5066478;28;20077;-75
2022/08/25 04:26:33;;;;;;;22.05;12.43;;;;;;;17.77;88.55;101377.91;5070467;28;20380;-75
2022/08/25 04:29:01;;;;;;;23.20;12.50;;;;;;;17.86;87.69;101386.19;5070417;28;20025;-75
2022/08/25 04:31:27;;;;;;;25.00;12.30;;;;;;;17.88;87.22;101379.59;5071689;28;20028;-75
2022/08/25 04:33:52;;;;;;;25.48;12.18;;;;;;;17.93;86.99;101374.59;5070404;28;20404;-75
2022/08/25 04:36:19;;;;;;;24.52;11.60;;;;;;;17.95;80.99;101364.44;5068355;28;20028;-75
2022/08/25 04:38:46;;;;;;;20.73;11.27;;;;;;;18.00;84.35;101361.28;5071778;28;20028;-75
2022/08/25 04:41:13;;;;;;;23.33;11.35;;;;;;;18.07;84.56;101361.53;5073533;28;20646;-75
2022/08/25 04:43:40;;;;;;;20.55;11.50;;;;;;;18.10;84.94;101361.25;5072543;28;20028;-75
2022/08/25 04:46:09;;;;;;;21.50;10.32;;;;;;;18.10;84.68;101364.81;5070302;28;20039;-75
2022/08/25 04:48:35;;;;;;;23.05;12.63;;;;;;;18.15;83.43;101364.38;5054384;28;20027;-75
2022/08/25 04:51:05;;;;;;;24.30;12.18;;;;;;;18.16;84.05;101360.66;5070318;28;20115;-75
2022/08/25 04:53:31;;;;;;;;;;;;;;;18.24;84.88;101358.00;5073214;28;20029;-75
2022/08/25 04:55:56;;;;;;;21.27;11.35;;;;;;;18.20;84.29;101361.19;5072620;28;19919;-75
2022/08/25 04:58:21;;;;;;;22.10;10.82;;;;;;;18.19;83.35;101359.50;5072757;28;20031;-75
2022/08/25 05:00:47;;;;;;;29.63;13.13;;;;;;;18.19;83.41;101364.94;5072503;28;20032;-75
2022/08/25 05:03:13;;;;;;;22.55;10.25;;;;;;;18.19;83.77;101359.50;5072203;28;20029;-75
2022/08/25 05:05:38;;;;;;;24.30;11.60;;;;;;;18.19;83.12;101359.50;5068058;28;20396;-75
2022/08/25 05:08:05;;;;;;;21.92;10.65;;;;;;;18.20;83.85;101366.63;5063423;28;20091;-75
2022/08/25 05:10:31;;;;;;;21.30;11.48;;;;;;;18.22;83.72;101370.06;5072578;28;20032;-75
2022/08/25 05:12:56;;;;;;;22.10;10.98;;;;;;;18.22;83.50;101370.06;5071923;28;20462;-75
2022/08/25 05:18:05;;;;;;;19.73;10.18;;;;;;;18.28;82.82;101383.91;5070475;28;20507;-75
2022/08/25 05:20:31;;;;;;;20.08;9.65;;;;;;;18.31;82.12;101377.34;5068335;28;20396;-75
2022/08/25 05:22:56;;;;;;;21.13;10.63;;;;;;;18.34;82.95;101388.75;5073191;28;20042;-75
2022/08/25 05:25:22;;;;;;;22.25;10.07;;;;;;;18.37;82.00;101390.31;5072882;28;20039;-75
2022/08/25 05:27:48;;;;;;;19.25;9.55;;;;;;;18.42;82.66;101387.16;5071923;28;20073;-75
2022/08/25 05:30:13;;;;;;;21.05;10.48;;;;;;;18.47;82.70;101393.84;5071160;28;20369;-75
2022/08/25 05:32:38;;;;;;;21.02;9.73;;;;;;;18.52;83.52;101397.00;5072297;28;20033;-75
2022/08/25 05:35:05;;;;;;;20.00;9.52;;;;;;;18.60;83.42;101398.09;5066247;28;20082;-75
2022/08/25 05:37:31;;;;;;;20.30;9.38;;;;;;;18.63;79.59;101389.63;5067595;28;20041;-75
2022/08/25 05:39:57;;;;;;;21.95;9.38;;;;;;;18.70;81.52;101393.47;5070426;28;20400;-75
2022/08/25 05:42:24;;;;;;;21.90;8.93;;;;;;;18.76;81.20;101390.13;5063952;28;20130;-75
2022/08/25 05:44:49;;;;;;;22.00;9.30;;;;;;;18.81;79.32;101393.22;5073110;28;20016;-75
2022/08/25 05:47:15;;;;;;;18.23;7.40;;;;;;;18.85;78.03;101393.78;5073075;28;20063;-75
2022/08/25 05:49:40;;;;;;;23.08;8.48;;;;;;;18.91;75.27;101392.34;5072106;28;20028;-75
2022/08/25 05:52:05;;;;;;;17.35;7.90;;;;;;;18.92;75.44;101388.59;5070108;28;20032;-75
2022/08/25 05:54:30;;;;;;;21.20;9.05;;;;;;;18.97;78.19;101403.47;5071871;28;20060;-75
2022/08/25 05:56:57;;;;;;;19.10;7.70;;;;;;;19.00;74.47;101395.00;5072058;28;20024;-75
2022/08/25 05:59:23;;;;;;;20.05;8.43;;;;;;;19.04;77.08;101409.19;5067849;28;20033;-75
2022/08/25 06:04:32;;;;;;;17.40;7.35;;;;;;;19.14;73.96;101414.56;5074741;28;20058;-75
2022/08/25 06:06:58;;;;;;;21.83;7.43;;;;;;;19.16;75.42;101420.69;5071526;28;20025;-75
2022/08/25 06:09:23;;;;;;;17.65;7.80;;;;;;;19.20;75.18;101412.06;5068425;28;20403;-75
2022/08/25 06:11:49;;;;;;;20.20;8.95;;;;;;;19.24;73.56;101412.63;5074237;28;20059;-74
2022/08/25 06:14:15;;;;;;;17.85;7.20;;;;;;;19.24;72.58;101404.44;5069714;28;20025;-75
2022/08/25 06:16:40;;;;;;;12.63;5.50;;;;;;;19.26;71.61;101404.28;5071907;28;20032;-75
2022/08/25 06:19:08;;;;;;;17.02;6.43;;;;;;;19.28;71.02;101402.25;5070377;28;20454;-74
2022/08/25 06:21:34;;;;;;;13.25;5.25;;;;;;;19.28;70.74;101399.53;5070965;28;20036;-75
2022/08/25 06:23:59;;;;;;;19.98;7.82;;;;;;;19.36;71.13;101397.72;5072102;28;20040;-76
2022/08/25 06:26:24;;;;;;;15.07;5.45;;;;;;;19.37;70.48;101404.03;5068560;28;20039;-75
2022/08/25 06:28:50;;;;;;;16.02;6.68;;;;;;;19.43;69.50;101403.41;5067733;28;20024;-75
2022/08/25 06:31:16;;;;;;;18.70;6.65;;;;;;;19.47;69.18;101412.13;5067177;28;20040;-74
2022/08/25 06:33:42;;;;;;;16.92;6.00;;;;;;;19.47;69.75;101404.78;5068877;28;20071;-74
2022/08/25 06:36:08;;;;;;;12.05;5.45;;;;;;;19.49;68.91;101407.41;5069324;28;20040;-74
2022/08/25 06:38:34;;;;;;;12.88;5.63;;;;;;;19.51;68.82;101405.34;5068954;28;20387;-74
2022/08/25 06:41:06;;;;;;;12.55;5.47;;;;;;;19.54;69.85;101408.59;5070425;28;20034;-75
2022/08/25 06:43:33;;;;;;;14.45;6.05;;;;;;;19.57;69.62;101407.44;5067271;28;20040;-75
2022/08/25 06:46:10;;;;;;;15.52;5.70;;;;;;;19.61;70.24;101406.13;5071723;28;20393;-75
2022/08/25 06:48:36;;;;;;;17.75;6.93;;;;;;;19.69;69.19;101408.03;5064938;28;20021;-74
2022/08/25 06:51:08;;;;;;;17.75;5.82;;;;;;;19.69;69.47;101408.91;5071426;28;20020;-74
2022/08/25 06:53:34;;;;;;;15.60;6.40;;;;;;;19.74;69.12;101402.97;5068269;28;20090;-75
2022/08/25 06:55:59;;;;;;;17.55;6.28;;;;;;;19.85;68.37;101407.34;5071373;28;20427;-74
2022/08/25 06:58:24;;;;;;;19.17;6.63;;;;;;;19.89;68.54;101406.00;5071716;28;20025;-74
2022/08/25 07:00:50;;;;;;;16.83;6.15;;;;;;;19.92;68.58;101402.97;5070829;28;20021;-74
2022/08/25 07:03:15;;;;;;;17.65;7.07;;;;;;;20.00;67.87;101402.16;5072150;28;20024;-74
2022/08/25 07:05:40;;;;;;;16.85;6.10;;;;;;;20.00;67.98;101399.41;5059434;28;20026;-74
2022/08/25 07:08:06;;;;;;;16.02;5.75;;;;;;;20.07;66.93;101395.03;5057270;28;20431;-74
2022/08/25 07:10:31;;;;;;;20.67;7.80;;;;;;;20.21;65.63;101390.84;5072099;28;20024;-74
2022/08/25 07:12:56;;;;;;;16.90;6.35;;;;;;;20.21;66.44;101388.97;5068536;28;20037;-74
2022/08/25 07:15:21;;;;;;;16.38;5.82;;;;;;;20.23;67.77;101386.91;5070333;28;20060;-75
2022/08/25 07:17:48;;;;;;;17.70;6.88;;;;;;;20.28;67.52;101385.59;5061129;28;20025;-74
2022/08/25 07:20:14;;;;;;;12.02;5.57;;;;;;;20.27;68.23;101383.91;5073013;28;20038;-74
2022/08/25 07:22:40;;;;;;;18.55;7.22;;;;;;;20.41;65.83;101385.97;5064628;28;20107;-74
2022/08/25 07:25:06;;;;;;;15.82;6.03;;;;;;;20.36;67.24;101385.63;5064313;28;20507;-74
2022/08/25 07:27:31;;;;;;;16.55;6.63;;;;;;;20.39;67.13;101388.03;5070789;28;20091;-74
2022/08/25 07:29:57;;;;;;;15.57;5.22;;;;;;;20.43;67.15;101397.59;5064914;28;20078;-74
2022/08/25 07:32:22;;;;;;;18.77;6.57;;;;;;;20.53;66.54;101390.13;5068446;28;20383;-74
2022/08/25 07:37:32;;;;;;;14.25;5.57;;;;;;;20.65;66.03;101392.56;5070832;28;20557;-74
2022/08/25 07:40:01;;;;;;;16.58;6.57;;;;;;;20.73;65.36;101384.41;5066690;28;20123;-74
2022/08/25 07:42:26;;;;;;;14.70;5.78;;;;;;;20.74;66.01;101387.00;5066270;28;20507;-74
2022/08/25 07:44:52;;;;;;;15.77;6.00;;;;;;;20.81;65.54;101387.19;5069526;28;20048;-74
2022/08/25 07:47:18;;;;;;;15.13;5.65;;;;;;;20.92;64.96;101389.63;5064062;28;20442;-74
2022/08/25 07:49:43;;;;;;;15.13;5.47;;;;;;;20.91;65.98;101393.34;5065305;28;20475;-74
2022/08/25 07:52:08;;;;;;;15.30;5.47;;;;;;;20.98;65.50;101389.94;5069789;28;20024;-73
2022/08/25 07:54:34;;;;;;;13.30;5.40;;;;;;;21.04;65.84;101384.69;5069792;28;20460;-73
2022/08/25 07:57:01;;;;;;;15.18;5.88;;;;;;;21.11;65.48;101382.97;5068916;28;20117;-73
2022/08/25 07:59:26;;;;;;;14.35;5.45;;;;;;;21.12;65.40;101383.81;5060123;28;20028;-73
2022/08/25 08:01:51;;;;;;;15.43;5.63;;;;;;;21.17;65.66;101386.91;5056153;28;20067;-73
2022/08/25 08:04:17;;;;;;;14.38;5.55;;;;;;;21.22;65.83;101386.41;5054601;28;20055;-74
2022/08/25 08:06:42;;;;;;;16.02;6.35;;;;;;;21.30;65.25;101386.41;5053904;28;20347;-74
2022/08/25 08:09:07;;;;;;;14.23;5.13;;;;;;;21.35;65.57;101383.16;5055045;28;20115;-74
2022/08/25 08:11:35;;;;;;;13.93;5.30;;;;;;;21.39;64.10;101379.06;5054193;28;20036;-74
2022/08/25 08:14:02;;;;;;;14.98;5.60;;;;;;;21.49;64.89;101371.53;5056041;28;20383;-74
2022/08/25 08:16:29;;;;;;;17.40;5.32;;;;;;;21.47;65.81;101377.16;5058773;28;20036;-75
2022/08/25 08:18:55;;;;;;;16.60;6.05;;;;;;;21.66;62.77;101377.03;5057908;28;20065;-74
2022/08/25 08:21:25;;;;;;;13.25;5.18;;;;;;;21.63;65.24;101362.66;5060987;28;20205;-75
2022/08/25 08:23:52;;;;;;;13.10;5.07;;;;;;;21.66;65.73;101369.69;5067096;28;20028;-75
2022/08/25 08:26:17;;;;;;;16.45;5.47;;;;;;;21.72;65.59;101377.19;5068986;28;20514;-75
2022/08/25 08:28:44;;;;;;;12.55;4.82;;;;;;;21.74;66.55;101383.34;5068489;28;20032;-75
2022/08/25 08:31:09;;;;;;;13.40;5.43;;;;;;;21.80;66.71;101381.78;5074351;28;20024;-75
2022/08/25 08:33:34;;;;;;;12.80;5.13;;;;;;;21.89;66.65;101380.75;5071634;28;20051;-75
2022/08/25 08:36:03;;;;;;;14.88;5.15;;;;;;;21.94;66.81;101375.59;5074069;28;20024;-75
2022/08/25 08:38:29;;;;;;;14.23;5.73;;;;;;;22.09;62.92;101370.25;5074563;28;20028;-75
2022/08/25 08:43:55;;;;;;;11.75;4.80;;;;;;;22.12;66.22;101369.94;5073747;28;20052;-75
2022/08/25 08:46:21;;;;;;;12.63;5.43;;;;;;;22.21;63.48;101367.97;5072913;28;20028;-75
2022/08/25 08:49:05;;;;;;;15.05;5.57;;;;;;;22.26;65.08;101367.47;5072383;28;20039;-75
2022/08/25 08:51:47;;;;;;;12.02;4.57;;;;;;;22.26;67.75;101365.59;5070064;28;20545;-75
2022/08/25 08:54:19;;;;;;;13.00;4.82;;;;;;;22.29;67.54;101367.97;5073490;28;20388;-75
2022/08/25 08:56:49;;;;;;;11.65;5.50;;;;;;;22.46;63.66;101365.19;5069758;28;20426;-75
2022/08/25 08:59:18;;;;;;;11.30;4.68;;;;;;;22.43;67.04;101362.81;5072663;28;20021;-75
2022/08/25 09:01:49;;;;;;;15.70;5.15;;;;;;;22.52;65.58;101365.34;5073065;28;20094;-75
2022/08/25 09:04:25;;;;;;;16.20;5.70;;;;;;;22.67;61.05;101370.06;5069556;28;20020;-75
2022/08/25 09:06:50;;;;;;;13.02;4.82;;;;;;;22.57;67.21;101373.00;5073394;28;20046;-75
2022/08/25 09:09:26;;;;;;;11.07;4.85;;;;;;;22.59;67.34;101370.09;5057087;28;20025;-75
2022/08/25 09:12:11;;;;;;;11.13;4.22;;;;;;;22.64;66.60;101370.41;5075244;28;20031;-75
2022/08/25 09:15:15;;;;;;;12.40;4.60;;;;;;;22.73;64.78;101365.75;5073303;28;20033;-75
2022/08/25 09:17:59;;;;;;;10.85;4.90;;;;;;;22.74;67.10;101367.44;5059902;28;20029;-75
2022/08/25 09:20:56;;;;;;;12.88;4.70;;;;;;;22.78;67.49;101361.44;5056946;28;20035;-75
2022/08/25 09:23:33;;;;;;;12.27;4.60;;;;;;;22.90;63.89;101361.88;5059522;28;20037;-75
2022/08/25 09:26:24;;;;;;;11.60;4.70;;;;;;;22.95;63.63;101359.41;5070847;28;20119;-75
2022/08/25 09:28:54;;;;;;;12.82;5.18;;;;;;;22.99;63.86;101359.94;5063941;28;20036;-75
2022/08/25 09:31:32;;;;;;;10.48;4.72;;;;;;;23.04;65.46;101365.69;5070701;28;20039;-74
2022/08/25 09:34:02;;;;;;;15.90;5.38;;;;;;;23.16;58.99;101364.28;5072588;28;20048;-75
2022/08/25 09:36:29;;;;;;;12.68;4.93;;;;;;;23.10;65.85;101366.88;5056253;28;20025;-74
2022/08/25 09:38:54;;;;;;;11.85;5.15;;;;;;;23.16;63.28;101367.03;5063980;28;20484;-74
2022/08/25 09:41:38;;;;;;;11.57;5.15;;;;;;;23.17;66.39;101362.38;5074628;28;20418;-74
2022/08/25 09:44:03;;;;;;;12.70;4.57;;;;;;;23.16;65.71;101355.19;5075991;28;20029;-73
2022/08/25 09:46:29;;;;;;;11.88;4.95;;;;;;;23.20;65.36;101353.78;5074594;28;20437;-73
2022/08/25 09:48:56;;;;;;;8.93;4.30;;;;;;;23.20;64.26;101359.28;5073491;28;20020;-71
2022/08/25 09:51:38;;;;;;;10.18;4.60;;;;;;;23.26;64.33;101350.31;5075197;28;20472;-71
2022/08/25 09:54:15;;;;;;;9.82;4.50;;;;;;;23.22;65.34;101346.22;5071622;28;20388;-71
2022/08/25 09:56:56;;;;;;;12.80;4.65;;;;;;;23.25;66.33;101340.41;5064857;28;20021;-72
2022/08/25 09:59:25;;;;;;;12.45;4.65;;;;;;;23.23;64.97;101339.72;5074799;28;20115;-72
2022/08/25 10:01:52;;;;;;;;;;;;;;;23.32;65.68;101335.84;5074878;28;20033;-72
2022/08/25 10:04:38;;;;;;;9.60;4.30;;;;;;;23.31;66.10;101336.91;5073979;28;19912;-72
2022/08/25 10:07:32;;;;;;;12.93;4.40;;;;;;;23.32;65.47;101329.53;5073741;28;20032;-72
2022/08/25 10:10:00;;;;;;;10.68;4.30;;;;;;;23.30;62.84;101313.25;5054915;28;20162;-72
2022/08/25 10:12:35;;;;;;;10.25;4.28;;;;;;;23.29;64.46;101319.78;5065772;28;20119;-72
2022/08/25 10:15:14;;;;;;;7.65;3.63;;;;;;;23.31;65.60;101320.47;5073427;28;20362;-72
2022/08/25 10:17:40;;;;;;;11.73;4.78;;;;;;;23.32;64.49;101313.91;5065073;28;20017;-72
2022/08/25 10:20:08;;;;;;;11.32;4.57;;;;;;;23.40;62.88;101318.50;5074379;28;20062;-72
2022/08/25 10:22:33;;;;;;;13.27;4.57;;;;;;;23.43;62.91;101314.50;5070521;28;20032;-72
2022/08/25 10:25:00;;;;;;;8.18;3.65;;;;;;;23.47;62.86;101304.88;5073992;28;20027;-72
2022/08/25 10:27:44;;;;;;;10.05;4.38;;;;;;;23.53;62.84;101301.38;5074291;28;20544;-71
2022/08/25 10:30:13;;;;;;;9.25;4.05;;;;;;;23.50;62.67;101297.13;5073885;28;20511;-71
2022/08/25 10:32:46;;;;;;;;;;;;;;;23.58;62.10;101295.34;5074708;28;20039;-69
2022/08/25 10:35:18;;;;;;;16.45;6.28;;;;;;;23.82;58.50;101284.09;5074549;28;19912;-69
2022/08/25 10:38:11;;;;;;;12.38;4.63;;;;;;;24.02;58.81;101289.88;5071645;28;20025;-69
2022/08/25 10:40:50;;;;;;;10.30;4.55;;;;;;;24.12;54.46;101286.84;5059790;28;20063;-70
2022/08/25 10:43:21;;;;;;;;;;;;;;;24.07;61.74;101279.19;5072862;28;20036;-70
2022/08/25 10:46:05;;;;;;;10.05;4.45;;;;;;;24.18;52.63;101283.31;5074180;28;20444;-69
2022/08/25 10:48:51;;;;;;;10.35;4.35;;;;;;;24.22;57.20;101272.81;5072756;28;20025;-69
2022/08/25 10:51:31;;;;;;;12.23;4.38;;;;;;;24.23;53.19;101271.75;5073987;28;20078;-69
2022/08/25 10:54:13;;;;;;;12.93;4.50;;;;;;;24.22;58.42;101270.06;5065307;28;20025;-69
2022/08/25 10:56:57;;;;;;;9.90;4.47;;;;;;;24.27;54.85;101270.31;5058744;28;20024;-69
2022/08/25 10:59:49;;;;;;;9.77;4.43;;;;;;;24.36;57.12;101271.91;5072462;28;20028;-69
2022/08/25 11:02:43;;;;;;;6.57;3.72;;;;;;;24.30;60.69;101267.19;5073849;28;20032;-69
2022/08/25 11:05:19;;;;;;;16.70;4.70;;;;;;;24.32;58.84;101256.00;5072621;28;20020;-69
2022/08/25 11:07:50;;;;;;;8.23;3.92;;;;;;;24.32;59.28;101264.25;5072330;28;20170;-69
2022/08/25 11:10:21;;;;;;;10.95;4.68;;;;;;;24.33;57.98;101257.72;5070913;28;20024;-69
2022/08/25 11:13:00;;;;;;;10.38;4.47;;;;;;;24.29;59.24;101265.50;5071875;28;20507;-69
2022/08/25 11:15:30;;;;;;;10.93;5.25;;;;;;;24.37;58.71;101254.38;5061444;28;20075;-69
2022/08/25 11:18:00;;;;;;;7.88;4.05;;;;;;;24.40;59.24;101254.00;5070818;28;20062;-69
2022/08/25 11:20:48;;;;;;;8.73;3.80;;;;;;;24.38;61.34;101256.09;5072779;28;20020;-70
2022/08/25 11:23:22;;;;;;;12.40;5.43;;;;;;;24.46;58.41;101260.63;5071268;28;20503;-70
2022/08/25 11:25:53;;;;;;;8.52;3.78;;;;;;;24.54;57.15;101249.50;5071408;28;20507;-70
2022/08/25 11:29:01;;;;;;;9.38;4.53;;;;;;;24.56;59.95;101241.06;5070562;28;20483;-70
2022/08/25 11:31:27;;;;;;;10.52;4.35;;;;;;;24.49;61.07;101237.41;5062598;28;20053;-70
2022/08/25 11:33:54;;;;;;;11.43;4.13;;;;;;;24.46;60.58;101238.63;5054734;28;20377;-70
2022/08/25 11:36:32;;;;;;;8.95;4.50;;;;;;;24.39;61.65;101238.56;5071954;28;20052;-70